createdAt,value
2022-08-14T00:01:10.189Z,100142.00
2022-08-14T00:03:43.140Z,100136.69
2022-08-14T00:06:28.406Z,100133.08
2022-08-14T00:09:00.875Z,100134.84
2022-08-14T00:11:33.395Z,100131.27
2022-08-14T00:14:05.723Z,100131.29
2022-08-14T00:16:40.364Z,100127.47
2022-08-14T00:19:19.139Z,100124.41
2022-08-14T00:21:53.480Z,100119.98
2022-08-14T00:24:28.914Z,100116.22
2022-08-14T00:27:02.805Z,100110.95
2022-08-14T00:29:40.276Z,100109.73
2022-08-14T00:32:53.013Z,100103.02
2022-08-14T00:35:06.280Z,100096.23
2022-08-14T00:37:41.630Z,100094.52
2022-08-14T00:40:19.187Z,100095.08
2022-08-14T00:43:05.132Z,100092.23
2022-08-14T00:45:36.656Z,100088.63
2022-08-14T00:48:08.430Z,100093.16
2022-08-14T00:50:40.121Z,100091.05
2022-08-14T00:53:13.492Z,100093.98
2022-08-14T00:55:47.593Z,100092.23
2022-08-14T00:58:35.708Z,100091.43
2022-08-14T01:01:19.187Z,100091.64
2022-08-14T01:03:53.045Z,100088.90
2022-08-14T01:06:25.565Z,100089.31
2022-08-14T01:09:02.592Z,100094.96
2022-08-14T01:11:36.222Z,100098.18
2022-08-14T01:14:25.910Z,100093.55
2022-08-14T01:16:59.875Z,100088.65
2022-08-14T01:19:49.417Z,100092.39
2022-08-14T01:22:21.208Z,100076.45
2022-08-14T01:24:58.479Z,100076.36
2022-08-14T01:27:30.429Z,100069.06
2022-08-14T01:30:08.988Z,100072.78
2022-08-14T01:32:42.578Z,100075.50
2022-08-14T01:35:20.041Z,100079.38
2022-08-14T01:38:05.967Z,100088.31
2022-08-14T01:40:41.771Z,100085.98
2022-08-14T01:43:15.998Z,100087.20
2022-08-14T01:45:57.680Z,100088.45
2022-08-14T01:48:38.205Z,100094.31
2022-08-14T01:51:18.997Z,100091.14
2022-08-14T01:53:55.357Z,100092.03
2022-08-14T01:56:37.041Z,100090.73
2022-08-14T01:59:18.297Z,100086.90
2022-08-14T02:01:57.901Z,100088.61
2022-08-14T02:04:41.030Z,100085.52
2022-08-14T02:07:34.654Z,100084.64
2022-08-14T02:10:18.133Z,100088.60
2022-08-14T02:12:59.605Z,100092.48
2022-08-14T02:15:31.129Z,100094.20
2022-08-14T02:18:04.606Z,100090.28
2022-08-14T02:20:36.229Z,100089.08
2022-08-14T02:23:08.373Z,100085.59
2022-08-14T02:25:40.606Z,100085.94
2022-08-14T02:28:24.168Z,100082.25
2022-08-14T02:31:03.549Z,100075.95
2022-08-14T02:33:41.706Z,100070.51
2022-08-14T02:37:05.269Z,100062.72
2022-08-14T02:39:04.770Z,100061.20
2022-08-14T02:41:39.945Z,100056.41
2022-08-14T02:44:21.663Z,100052.35
2022-08-14T02:47:01.814Z,100052.14
2022-08-14T02:49:34.196Z,100054.46
2022-08-14T02:52:56.654Z,100053.92
2022-08-14T02:54:59.441Z,100050.55
2022-08-14T02:57:39.308Z,100050.08
2022-08-14T03:00:18.810Z,100053.36
2022-08-14T03:02:58.746Z,100051.64
2022-08-14T03:05:32.930Z,100051.05
2022-08-14T03:08:09.469Z,100051.54
2022-08-14T03:10:48.722Z,100053.50
2022-08-14T03:13:21.993Z,100046.36
2022-08-14T03:15:55.153Z,100038.48
2022-08-14T03:18:31.961Z,100035.25
2022-08-14T03:21:05.730Z,100032.52
2022-08-14T03:23:37.926Z,100032.60
2022-08-14T03:26:12.964Z,100029.38
2022-08-14T03:28:51.226Z,100027.37
2022-08-14T03:31:27.942Z,100025.77
2022-08-14T03:34:01.203Z,100028.62
2022-08-14T03:37:51.893Z,100024.42
2022-08-14T03:39:27.786Z,100032.04
2022-08-14T03:42:00.051Z,100031.58
2022-08-14T03:45:26.285Z,100022.72
2022-08-14T03:47:46.675Z,100029.10
2022-08-14T03:50:27.967Z,100037.48
2022-08-14T03:53:04.477Z,100030.89
2022-08-14T03:55:36.834Z,100028.11
2022-08-14T03:58:09.569Z,100027.11
2022-08-14T04:00:46.591Z,100020.42
2022-08-14T04:03:24.275Z,100018.70
2022-08-14T04:05:56.161Z,100018.46
2022-08-14T04:08:30.482Z,100014.83
2022-08-14T04:11:08.023Z,100014.83
2022-08-14T04:13:43.195Z,100020.22
2022-08-14T04:16:16.847Z,100025.48
2022-08-14T04:18:49.798Z,100029.02
2022-08-14T04:21:59.809Z,100037.23
2022-08-14T04:24:22.304Z,100038.73
2022-08-14T04:26:57.424Z,100038.57
2022-08-14T04:29:28.929Z,100039.64
2022-08-14T04:33:01.417Z,100036.35
2022-08-14T04:34:56.194Z,100035.11
2022-08-14T04:37:45.604Z,100039.36
2022-08-14T04:40:35.325Z,100044.11
2022-08-14T04:43:38.311Z,100047.45
2022-08-14T04:46:55.641Z,100046.32
2022-08-14T04:49:03.407Z,100047.20
2022-08-14T04:51:46.800Z,100047.15
2022-08-14T04:54:28.477Z,100043.89
2022-08-14T04:56:59.815Z,100047.21
2022-08-14T04:59:31.756Z,100049.05
2022-08-14T05:02:03.829Z,100047.14
2022-08-14T05:04:35.255Z,100042.77
2022-08-14T05:07:11.393Z,100033.77
2022-08-14T05:09:43.921Z,100034.77
2022-08-14T05:13:13.308Z,100036.95
2022-08-14T05:15:12.074Z,100047.90
2022-08-14T05:17:58.640Z,100041.98
2022-08-14T05:21:54.685Z,100044.73
2022-08-14T05:23:28.890Z,100042.68
2022-08-14T05:26:02.238Z,100043.08
2022-08-14T05:28:34.367Z,100042.25
2022-08-14T05:31:07.039Z,100035.55
2022-08-14T05:33:39.287Z,100037.06
2022-08-14T05:36:16.840Z,100038.81
2022-08-14T05:38:48.876Z,100040.16
2022-08-14T05:41:21.756Z,100041.23
2022-08-14T05:43:53.523Z,100037.33
2022-08-14T05:46:25.114Z,100038.64
2022-08-14T05:48:57.794Z,100039.79
2022-08-14T05:51:30.655Z,100036.80
2022-08-14T05:54:12.775Z,100040.12
2022-08-14T05:56:45.680Z,100035.56
2022-08-14T05:59:17.049Z,100032.90
2022-08-14T06:01:51.166Z,100032.08
2022-08-14T06:04:22.803Z,100031.65
2022-08-14T06:06:56.476Z,100027.56
2022-08-14T06:09:29.859Z,100031.02
2022-08-14T06:12:08.578Z,100027.81
2022-08-14T06:14:40.073Z,100031.84
2022-08-14T06:17:25.657Z,100031.27
2022-08-14T06:19:57.557Z,100029.80
2022-08-14T06:22:29.080Z,100027.23
2022-08-14T06:25:00.362Z,100023.65
2022-08-14T06:27:36.522Z,100023.14
2022-08-14T06:30:10.871Z,100022.16
2022-08-14T06:32:42.382Z,100021.33
2022-08-14T06:35:15.006Z,100018.89
2022-08-14T06:37:47.933Z,100024.44
2022-08-14T06:40:26.920Z,100025.96
2022-08-14T06:43:03.160Z,100021.58
2022-08-14T06:45:36.165Z,100026.84
2022-08-14T06:48:14.792Z,100029.28
2022-08-14T06:50:48.942Z,100032.11
2022-08-14T06:53:20.338Z,100030.63
2022-08-14T06:55:58.290Z,100031.52
2022-08-14T06:58:32.872Z,100034.70
2022-08-14T07:01:27.064Z,100036.57
2022-08-14T07:04:18.880Z,100035.13
2022-08-14T07:06:59.383Z,100033.09
2022-08-14T07:09:43.616Z,100033.66
2022-08-14T07:12:54.694Z,100033.23
2022-08-14T07:15:13.608Z,100029.71
2022-08-14T07:17:52.014Z,100028.33
2022-08-14T07:20:30.581Z,100026.28
2022-08-14T07:23:08.615Z,100027.64
2022-08-14T07:25:44.304Z,100030.95
2022-08-14T07:28:20.786Z,100030.20
2022-08-14T07:30:56.616Z,100031.05
2022-08-14T07:33:30.212Z,100023.14
2022-08-14T07:36:26.272Z,100024.33
2022-08-14T07:38:55.991Z,100021.25
2022-08-14T07:41:34.141Z,100019.48
2022-08-14T07:44:32.672Z,100017.90
2022-08-14T07:46:59.075Z,100017.13
2022-08-14T07:49:30.808Z,100016.42
2022-08-14T07:52:03.361Z,100020.61
2022-08-14T07:54:34.900Z,100018.70
2022-08-14T07:57:12.571Z,100015.28
2022-08-14T07:59:53.873Z,100011.51
2022-08-14T08:02:26.578Z,100014.06
2022-08-14T08:04:59.679Z,100011.64
2022-08-14T08:07:32.670Z,100015.39
2022-08-14T08:10:46.208Z,100016.41
2022-08-14T08:13:23.918Z,100019.05
2022-08-14T08:15:57.621Z,100023.30
2022-08-14T08:18:31.159Z,100023.05
2022-08-14T08:21:03.144Z,100019.02
2022-08-14T08:23:40.568Z,100014.43
2022-08-14T08:26:15.798Z,100013.13
2022-08-14T08:28:57.179Z,100013.63
2022-08-14T08:31:32.818Z,100016.95
2022-08-14T08:34:14.138Z,100019.73
2022-08-14T08:36:46.563Z,100018.67
2022-08-14T08:39:22.692Z,100016.59
2022-08-14T08:41:54.612Z,100018.90
2022-08-14T08:44:34.299Z,100019.55
2022-08-14T08:47:08.170Z,100017.75
2022-08-14T08:49:48.528Z,100016.17
2022-08-14T08:52:32.147Z,100015.86
2022-08-14T08:55:05.052Z,100014.14
2022-08-14T08:57:38.208Z,100017.00
2022-08-14T09:00:24.894Z,100021.14
2022-08-14T09:02:59.668Z,100019.94
2022-08-14T09:05:32.255Z,100019.12
2022-08-14T09:08:30.864Z,100013.77
2022-08-14T09:11:18.781Z,100019.06
2022-08-14T09:13:53.928Z,100022.13
2022-08-14T09:16:26.311Z,100018.70
2022-08-14T09:18:58.346Z,100014.40
2022-08-14T09:21:31.925Z,100018.13
2022-08-14T09:24:28.404Z,100009.09
2022-08-14T09:26:55.338Z,100008.87
2022-08-14T09:29:28.775Z,100008.38
2022-08-14T09:32:02.382Z,100002.09
2022-08-14T09:34:58.375Z,100001.08
2022-08-14T09:37:40.100Z,99999.36
2022-08-14T09:40:21.009Z,100000.40
2022-08-14T09:42:58.029Z,100003.25
2022-08-14T09:45:39.762Z,100000.95
2022-08-14T09:48:30.179Z,100002.23
2022-08-14T09:54:12.568Z,100003.35
2022-08-14T09:56:45.385Z,99994.30
2022-08-14T09:59:22.928Z,99991.81
2022-08-14T10:01:57.450Z,99991.52
2022-08-14T10:04:36.544Z,99992.05
2022-08-14T10:07:12.388Z,99983.55
2022-08-14T10:09:59.637Z,99988.23
2022-08-14T10:12:52.988Z,99984.08
2022-08-14T10:15:29.859Z,99981.84
2022-08-14T10:18:13.332Z,99974.88
2022-08-14T10:20:58.185Z,99977.18
2022-08-14T10:23:34.978Z,99969.44
2022-08-14T10:26:08.629Z,99967.87
2022-08-14T10:29:18.385Z,99972.78
2022-08-14T10:31:40.078Z,99966.85
2022-08-14T10:34:15.408Z,99969.73
2022-08-14T10:36:50.123Z,99966.33
2022-08-14T10:39:34.047Z,99970.11
2022-08-14T10:42:18.336Z,99971.27
2022-08-14T10:44:53.069Z,99971.31
2022-08-14T10:47:39.475Z,99969.53
2022-08-14T10:50:34.451Z,99968.02
2022-08-14T10:53:08.189Z,99966.03
2022-08-14T10:55:45.742Z,99962.38
2022-08-14T10:58:28.661Z,99964.34
2022-08-14T11:01:08.330Z,99959.95
2022-08-14T11:03:55.951Z,99956.33
2022-08-14T11:06:29.221Z,99951.58
2022-08-14T11:09:00.718Z,99944.86
2022-08-14T11:11:37.098Z,99942.36
2022-08-14T11:14:09.731Z,99943.35
2022-08-14T11:16:49.095Z,99937.86
2022-08-14T11:19:25.939Z,99938.05
2022-08-14T11:22:00.263Z,99937.52
2022-08-14T11:24:54.463Z,99937.97
2022-08-14T11:27:33.271Z,99938.88
2022-08-14T11:30:49.832Z,99933.40
2022-08-14T11:33:01.363Z,99937.31
2022-08-14T11:35:44.194Z,99932.15
2022-08-14T11:38:21.722Z,99927.21
2022-08-14T11:40:53.856Z,99925.15
2022-08-14T11:43:29.105Z,99925.15
2022-08-14T11:46:03.540Z,99935.42
2022-08-14T11:49:01.789Z,99935.53
2022-08-14T11:51:54.370Z,99938.15
2022-08-14T11:54:34.561Z,99935.55
2022-08-14T11:57:07.698Z,99930.06
2022-08-14T11:59:44.305Z,99932.51
2022-08-14T12:03:01.030Z,99928.52
2022-08-14T12:05:10.731Z,99925.60
2022-08-14T12:07:51.380Z,99920.31
2022-08-14T12:10:27.293Z,99918.04
2022-08-14T12:13:17.353Z,99921.50
2022-08-14T12:15:58.888Z,99921.81
2022-08-14T12:18:35.435Z,99916.44
2022-08-14T12:21:19.297Z,99918.52
2022-08-14T12:24:04.222Z,99916.34
2022-08-14T12:26:40.653Z,99915.53
2022-08-14T12:29:14.787Z,99917.68
2022-08-14T12:31:51.534Z,99917.72
2022-08-14T12:34:24.246Z,99914.00
2022-08-14T12:37:06.241Z,99913.67
2022-08-14T12:39:39.742Z,99911.59
2022-08-14T12:42:34.238Z,99904.59
2022-08-14T12:45:05.938Z,99900.04
2022-08-14T12:47:39.858Z,99897.23
2022-08-14T12:50:12.342Z,99896.92
2022-08-14T12:53:06.423Z,99893.73
2022-08-14T12:56:17.809Z,99897.48
2022-08-14T12:58:50.011Z,99894.79
2022-08-14T13:01:25.810Z,99897.42
2022-08-14T13:04:07.614Z,99892.47
2022-08-14T13:06:42.231Z,99890.92
2022-08-14T13:09:17.126Z,99885.76
2022-08-14T13:11:58.452Z,99880.31
2022-08-14T13:14:33.994Z,99871.78
2022-08-14T13:17:05.890Z,99864.71
2022-08-14T13:19:41.662Z,99857.60
2022-08-14T13:22:19.452Z,99847.88
2022-08-14T13:25:05.268Z,99843.86
2022-08-14T13:27:39.487Z,99842.04
2022-08-14T13:30:21.234Z,99843.83
2022-08-14T13:32:57.733Z,99839.53
2022-08-14T13:35:29.854Z,99845.35
2022-08-14T13:38:01.884Z,99845.42
2022-08-14T13:40:33.656Z,99839.15
2022-08-14T13:43:10.621Z,99841.45
2022-08-14T13:45:59.901Z,99845.70
2022-08-14T13:48:36.084Z,99835.54
2022-08-14T13:51:10.842Z,99832.31
2022-08-14T13:54:06.939Z,99829.20
2022-08-14T13:56:39.399Z,99828.35
2022-08-14T13:59:12.007Z,99824.20
2022-08-14T14:01:52.139Z,99823.06
2022-08-14T14:04:25.288Z,99826.23
2022-08-14T14:06:59.036Z,99826.11
2022-08-14T14:09:37.463Z,99825.79
2022-08-14T14:12:37.690Z,99824.46
2022-08-14T14:15:04.898Z,99824.27
2022-08-14T14:17:38.909Z,99826.50
2022-08-14T14:20:15.140Z,99823.02
2022-08-14T14:23:12.157Z,99819.27
2022-08-14T14:25:57.191Z,99812.19
2022-08-14T14:28:31.375Z,99805.59
2022-08-14T14:31:05.945Z,99805.20
2022-08-14T14:33:46.851Z,99804.52
2022-08-14T14:36:22.068Z,99797.48
2022-08-14T14:38:57.416Z,99798.90
2022-08-14T14:41:37.980Z,99800.59
2022-08-14T14:44:13.586Z,99805.90
2022-08-14T14:46:53.066Z,99810.04
2022-08-14T14:49:25.919Z,99810.88
2022-08-14T14:52:27.014Z,99815.33
2022-08-14T14:55:00.557Z,99807.91
2022-08-14T14:57:35.104Z,99803.83
2022-08-14T15:00:12.587Z,99800.59
2022-08-14T15:02:45.626Z,99801.27
2022-08-14T15:05:19.075Z,99801.96
2022-08-14T15:07:52.677Z,99806.06
2022-08-14T15:10:27.323Z,99806.97
2022-08-14T15:13:04.423Z,99815.08
2022-08-14T15:15:37.878Z,99819.82
2022-08-14T15:18:35.856Z,99822.41
2022-08-14T15:21:03.367Z,99822.51
2022-08-14T15:23:44.339Z,99821.79
2022-08-14T15:26:31.269Z,99821.76
2022-08-14T15:29:06.412Z,99817.40
2022-08-14T15:31:38.755Z,99819.61
2022-08-14T15:34:45.968Z,99820.92
2022-08-14T15:37:12.739Z,99820.34
2022-08-14T15:39:45.402Z,99823.13
2022-08-14T15:42:17.158Z,99822.66
2022-08-14T15:44:58.076Z,99822.58
2022-08-14T15:47:35.201Z,99814.33
2022-08-14T15:50:13.771Z,99815.52
2022-08-14T15:52:45.622Z,99817.55
2022-08-14T15:55:17.536Z,99816.69
2022-08-14T15:58:02.128Z,99816.98
2022-08-14T16:00:55.348Z,99820.92
2022-08-14T16:03:36.563Z,99822.25
2022-08-14T16:06:15.740Z,99826.42
2022-08-14T16:08:58.962Z,99827.52
2022-08-14T16:11:32.936Z,99825.34
2022-08-14T16:14:06.754Z,99829.10
2022-08-14T16:16:51.582Z,99828.89
2022-08-14T16:19:44.079Z,99825.67
2022-08-14T16:22:58.156Z,99821.59
2022-08-14T16:25:10.911Z,99820.32
2022-08-14T16:27:51.378Z,99821.39
2022-08-14T16:30:27.472Z,99822.69
2022-08-14T16:33:01.988Z,99820.98
2022-08-14T16:35:42.447Z,99818.63
2022-08-14T16:38:46.195Z,99811.74
2022-08-14T16:41:21.227Z,99806.93
2022-08-14T16:43:58.870Z,99806.40
2022-08-14T16:46:32.905Z,99797.35
2022-08-14T16:49:06.816Z,99797.52
2022-08-14T16:51:39.822Z,99794.44
2022-08-14T16:54:20.999Z,99795.04
2022-08-14T16:57:20.960Z,99790.65
2022-08-14T16:59:57.744Z,99786.05
2022-08-14T17:02:39.806Z,99783.59
2022-08-14T17:05:22.331Z,99777.77
2022-08-14T17:08:32.562Z,99778.45
2022-08-14T17:11:09.760Z,99776.16
2022-08-14T17:13:58.677Z,99776.28
2022-08-14T17:16:37.434Z,99775.39
2022-08-14T17:19:14.366Z,99776.94
2022-08-14T17:21:50.874Z,99783.74
2022-08-14T17:24:56.934Z,99792.44
2022-08-14T17:27:18.453Z,99798.33
2022-08-14T17:29:57.951Z,99797.02
2022-08-14T17:32:44.046Z,99797.17
2022-08-14T17:35:18.241Z,99794.15
2022-08-14T17:37:55.847Z,99791.77
2022-08-14T17:40:31.845Z,99794.66
2022-08-14T17:43:04.010Z,99800.36
2022-08-14T17:45:46.952Z,99809.69
2022-08-14T17:49:14.088Z,99816.66
2022-08-14T17:51:23.732Z,99814.02
2022-08-14T17:54:03.433Z,99810.21
2022-08-14T17:56:36.215Z,99805.19
2022-08-14T17:59:11.666Z,99806.48
2022-08-14T18:01:49.723Z,99806.86
2022-08-14T18:04:25.147Z,99803.48
2022-08-14T18:07:16.104Z,99805.51
2022-08-14T18:09:57.060Z,99816.23
2022-08-14T18:12:36.901Z,99815.65
2022-08-14T18:15:15.848Z,99813.03
2022-08-14T18:17:53.106Z,99803.27
2022-08-14T18:21:42.982Z,99797.29
2022-08-14T18:23:18.655Z,99788.74
2022-08-14T18:25:52.299Z,99797.17
2022-08-14T18:28:48.443Z,99798.30
2022-08-14T18:31:43.599Z,99805.98
2022-08-14T18:34:30.975Z,99823.53
2022-08-14T18:37:17.650Z,99832.38
2022-08-14T18:40:02.756Z,99827.46
2022-08-14T18:42:46.446Z,99822.77
2022-08-14T18:45:28.744Z,99809.98
2022-08-14T18:48:15.805Z,99809.81
2022-08-14T18:50:52.888Z,99813.81
2022-08-14T18:53:34.199Z,99807.23
2022-08-14T18:56:09.527Z,99787.86
2022-08-14T18:58:58.462Z,99779.87
2022-08-14T19:01:31.164Z,99770.39
2022-08-14T19:04:04.074Z,99773.47
2022-08-14T19:06:55.788Z,99771.29
2022-08-14T19:09:50.235Z,99773.54
2022-08-14T19:12:44.522Z,99779.17
2022-08-14T19:15:25.959Z,99785.81
2022-08-14T19:18:14.301Z,99788.50
2022-08-14T19:20:53.323Z,99790.66
2022-08-14T19:23:42.256Z,99795.98
2022-08-14T19:26:35.542Z,99795.92
2022-08-14T19:29:23.496Z,99797.02
2022-08-14T19:31:58.886Z,99798.63
2022-08-14T19:34:52.212Z,99797.30
2022-08-14T19:37:38.174Z,99796.98
2022-08-14T19:40:15.239Z,99801.23
2022-08-14T19:42:51.902Z,99798.98
2022-08-14T19:45:33.703Z,99790.41
2022-08-14T19:48:12.377Z,99777.39
2022-08-14T19:50:46.941Z,99773.40
2022-08-14T19:53:19.703Z,99774.93
2022-08-14T19:55:59.374Z,99766.35
2022-08-14T19:58:54.891Z,99759.05
2022-08-14T20:01:36.588Z,99760.73
2022-08-14T20:04:47.053Z,99761.36
2022-08-14T20:07:04.262Z,99763.19
2022-08-14T20:11:07.976Z,99761.45
2022-08-14T20:12:57.211Z,99762.99
2022-08-14T20:15:46.808Z,99764.30
2022-08-14T20:18:49.866Z,99763.33
2022-08-14T20:21:20.198Z,99762.86
2022-08-14T20:23:52.128Z,99765.61
2022-08-14T20:26:32.017Z,99764.40
2022-08-14T20:29:08.650Z,99762.92
2022-08-14T20:31:40.604Z,99760.48
2022-08-14T20:34:18.890Z,99760.89
2022-08-14T20:37:09.635Z,99762.38
2022-08-14T20:39:43.632Z,99757.48
2022-08-14T20:42:35.733Z,99757.02
2022-08-14T20:45:23.745Z,99760.14
2022-08-14T20:48:01.107Z,99757.60
2022-08-14T20:50:33.568Z,99753.02
2022-08-14T20:53:26.551Z,99757.63
2022-08-14T20:56:04.396Z,99756.72
2022-08-14T20:58:47.891Z,99757.25
2022-08-14T21:01:36.721Z,99764.80
2022-08-14T21:04:22.771Z,99768.79
2022-08-14T21:07:25.195Z,99765.20
2022-08-14T21:10:05.645Z,99766.50
2022-08-14T21:13:25.787Z,99770.30
2022-08-14T21:15:32.905Z,99767.27
2022-08-14T21:18:05.634Z,99767.13
2022-08-14T21:20:38.466Z,99772.15
2022-08-14T21:23:12.350Z,99773.86
2022-08-14T21:25:46.322Z,99775.13
2022-08-14T21:28:29.318Z,99779.66
2022-08-14T21:31:02.426Z,99785.20
2022-08-14T21:33:34.679Z,99788.99
2022-08-14T21:36:07.852Z,99789.04
2022-08-14T21:38:42.474Z,99792.20
2022-08-14T21:41:41.245Z,99789.30
2022-08-14T21:44:18.086Z,99785.55
2022-08-14T21:46:54.115Z,99778.84
2022-08-14T21:49:33.831Z,99773.11
2022-08-14T21:52:51.584Z,99763.20
2022-08-14T21:55:09.089Z,99758.51
2022-08-14T21:58:44.863Z,99753.34
2022-08-14T22:00:42.546Z,99750.16
2022-08-14T22:03:17.580Z,99747.41
2022-08-14T22:05:50.531Z,99746.32
2022-08-14T22:08:26.759Z,99745.55
2022-08-14T22:10:59.634Z,99745.58
2022-08-14T22:13:32.638Z,99745.16
2022-08-14T22:16:04.927Z,99743.27
2022-08-14T22:18:36.753Z,99739.35
2022-08-14T22:21:16.838Z,99734.98
2022-08-14T22:23:49.317Z,99729.61
2022-08-14T22:26:23.557Z,99730.77
2022-08-14T22:29:06.940Z,99725.63
2022-08-14T22:31:41.666Z,99723.36
2022-08-14T22:34:16.179Z,99720.98
2022-08-14T22:36:51.129Z,99725.66
2022-08-14T22:39:40.175Z,99726.34
2022-08-14T22:42:21.343Z,99731.63
2022-08-14T22:44:56.460Z,99732.40
2022-08-14T22:47:40.305Z,99733.19
2022-08-14T22:50:32.454Z,99728.79
2022-08-14T22:53:06.904Z,99733.29
2022-08-14T22:55:42.720Z,99731.88
2022-08-14T22:58:17.238Z,99729.37
2022-08-14T23:00:50.917Z,99731.05
2022-08-14T23:03:23.549Z,99729.54
2022-08-14T23:05:55.804Z,99731.78
2022-08-14T23:08:58.943Z,99734.64
2022-08-14T23:11:20.716Z,99732.60
2022-08-14T23:13:55.091Z,99731.31
2022-08-14T23:16:26.801Z,99733.33
2022-08-14T23:18:58.590Z,99733.79
2022-08-14T23:21:30.611Z,99734.48
2022-08-14T23:24:05.505Z,99735.46
2022-08-14T23:26:48.180Z,99738.62
2022-08-14T23:29:22.275Z,99747.32
2022-08-14T23:31:53.886Z,99745.56
2022-08-14T23:34:26.191Z,99748.87
2022-08-14T23:37:03.908Z,99747.14
2022-08-14T23:39:39.096Z,99747.75
2022-08-14T23:42:11.876Z,99743.65
2022-08-14T23:44:47.353Z,99737.61
2022-08-14T23:47:26.324Z,99735.40
2022-08-14T23:50:07.583Z,99737.31
2022-08-14T23:52:55.609Z,99734.34
2022-08-14T23:55:33.454Z,99732.07
2022-08-14T23:58:04.876Z,99726.19
